LTBL/IGI METAR and TAF weather

Enter ICAO airport designator
Station Type Date Time Source
LTBL METAR 2023/01/30 10:50 UTC NOAA

LTBL 301050Z 01010KT 340V040 9999 SCT035 09/01 Q1014 NOSIG RMK RWY17 03009KT 360V060


Station Type Date Time Source
LTBL Decoded METAR 2023/01/30 10:50 UTC NOAA

Izmir / Cigli, Turkey (LTBL) 38-30N 027-01E 5M
Jan 30, 2023 - 05:50 AM EST / 2023.01.30 1050 UTC
Wind: from the N (010 degrees) at 12 MPH (10 KT) (direction variable):0
Visibility: greater than 7 mile(s):0
Sky conditions: partly cloudy
Temperature: 48 F (9 C)
Dew Point: 33 F (1 C)
Relative Humidity: 57%
Pressure (altimeter): 29.94 in. Hg (1014 hPa)
ob: LTBL 301050Z 01010KT 340V040 9999 SCT035 09/01 Q1014 NOSIG RMK RWY17 03009KT 360V060
cycle: 11

Station Type Date Time Source
LTBL TAF UTC NOAA

Error!

Example: see airport list